< < Back
Terminal Aerodrome Forecast


Current Version              Previous Versions:   1  2  3  4  5  6  7  8  9  

Terminal Aerodrome Forecast

228
FTUS42 KCAE 270500
TAFAGS
TAF
KAGS 270523Z 2706/2806 04009KT P6SM SCT080
     FM271500 35007KT P6SM SCT050
     FM280000 VRB03KT P6SM FEW250=

Latest METAR

482
SAUS70 KWBC 271000 RRD
MTRAGS
METAR KAGS 270953Z AUTO 02006KT 10SM SCT055 11/08 A2979 RMK AO2 SLP086
T01110083


USA.gov is the U.S. government's official web portal to all federal, state and local government web resources and services.